sensor_id;sensor_type;location;lat;lon;timestamp;P1;durP1;ratioP1;P2;durP2;ratioP2
27505;SDS011;14939;43.596;1.320;2024-01-30T00:02:15;16.80;;;9.68;;
27505;SDS011;14939;43.596;1.320;2024-01-30T00:04:41;24.67;;;9.45;;
27505;SDS011;14939;43.596;1.320;2024-01-30T00:07:07;27.02;;;10.20;;
27505;SDS011;14939;43.596;1.320;2024-01-30T00:09:32;20.40;;;10.25;;
27505;SDS011;14939;43.596;1.320;2024-01-30T00:11:58;22.40;;;10.02;;
27505;SDS011;14939;43.596;1.320;2024-01-30T00:14:24;21.10;;;9.57;;
27505;SDS011;14939;43.596;1.320;2024-01-30T00:16:50;18.98;;;10.10;;
27505;SDS011;14939;43.596;1.320;2024-01-30T00:19:16;21.83;;;10.18;;
27505;SDS011;14939;43.596;1.320;2024-01-30T00:21:42;21.35;;;10.10;;
27505;SDS011;14939;43.596;1.320;2024-01-30T00:24:08;22.88;;;10.27;;
27505;SDS011;14939;43.596;1.320;2024-01-30T00:26:34;26.00;;;10.63;;
27505;SDS011;14939;43.596;1.320;2024-01-30T00:28:59;22.30;;;10.02;;
27505;SDS011;14939;43.596;1.320;2024-01-30T00:31:25;18.65;;;10.00;;
27505;SDS011;14939;43.596;1.320;2024-01-30T00:33:51;26.52;;;10.65;;
27505;SDS011;14939;43.596;1.320;2024-01-30T00:36:17;23.98;;;10.73;;
27505;SDS011;14939;43.596;1.320;2024-01-30T00:38:42;21.42;;;9.55;;
27505;SDS011;14939;43.596;1.320;2024-01-30T00:41:08;21.65;;;9.98;;
27505;SDS011;14939;43.596;1.320;2024-01-30T00:43:34;24.67;;;10.20;;
27505;SDS011;14939;43.596;1.320;2024-01-30T00:46:00;23.45;;;10.40;;
27505;SDS011;14939;43.596;1.320;2024-01-30T00:48:26;25.20;;;10.65;;
27505;SDS011;14939;43.596;1.320;2024-01-30T00:50:52;27.20;;;10.70;;
27505;SDS011;14939;43.596;1.320;2024-01-30T00:53:17;22.90;;;10.00;;
27505;SDS011;14939;43.596;1.320;2024-01-30T00:55:43;25.50;;;10.02;;
27505;SDS011;14939;43.596;1.320;2024-01-30T00:58:09;25.38;;;10.15;;
27505;SDS011;14939;43.596;1.320;2024-01-30T01:00:34;20.00;;;10.88;;
27505;SDS011;14939;43.596;1.320;2024-01-30T01:03:00;23.65;;;9.88;;
27505;SDS011;14939;43.596;1.320;2024-01-30T01:05:26;21.48;;;9.70;;
27505;SDS011;14939;43.596;1.320;2024-01-30T01:07:52;26.08;;;10.43;;
27505;SDS011;14939;43.596;1.320;2024-01-30T01:10:18;23.25;;;10.02;;
27505;SDS011;14939;43.596;1.320;2024-01-30T01:12:45;23.45;;;10.00;;
27505;SDS011;14939;43.596;1.320;2024-01-30T01:15:11;18.67;;;9.73;;
27505;SDS011;14939;43.596;1.320;2024-01-30T01:17:37;17.45;;;9.82;;
27505;SDS011;14939;43.596;1.320;2024-01-30T01:20:04;25.92;;;10.45;;
27505;SDS011;14939;43.596;1.320;2024-01-30T01:22:31;23.25;;;9.85;;
27505;SDS011;14939;43.596;1.320;2024-01-30T01:24:58;18.75;;;9.70;;
27505;SDS011;14939;43.596;1.320;2024-01-30T01:27:24;18.05;;;9.38;;
27505;SDS011;14939;43.596;1.320;2024-01-30T01:29:50;20.90;;;9.88;;
27505;SDS011;14939;43.596;1.320;2024-01-30T01:32:16;17.85;;;9.13;;
27505;SDS011;14939;43.596;1.320;2024-01-30T01:34:41;20.45;;;9.68;;
27505;SDS011;14939;43.596;1.320;2024-01-30T01:37:07;22.10;;;10.20;;
27505;SDS011;14939;43.596;1.320;2024-01-30T01:39:33;18.02;;;9.63;;
27505;SDS011;14939;43.596;1.320;2024-01-30T01:41:59;18.92;;;9.45;;
27505;SDS011;14939;43.596;1.320;2024-01-30T01:44:24;20.20;;;9.60;;
27505;SDS011;14939;43.596;1.320;2024-01-30T01:46:50;23.25;;;9.43;;
27505;SDS011;14939;43.596;1.320;2024-01-30T01:49:17;21.98;;;9.88;;
27505;SDS011;14939;43.596;1.320;2024-01-30T01:51:44;25.27;;;9.05;;
27505;SDS011;14939;43.596;1.320;2024-01-30T01:54:12;19.70;;;8.82;;
27505;SDS011;14939;43.596;1.320;2024-01-30T01:56:41;21.05;;;8.98;;
27505;SDS011;14939;43.596;1.320;2024-01-30T01:59:08;20.73;;;8.80;;
27505;SDS011;14939;43.596;1.320;2024-01-30T02:01:37;20.50;;;8.35;;
27505;SDS011;14939;43.596;1.320;2024-01-30T02:04:03;21.73;;;8.73;;
27505;SDS011;14939;43.596;1.320;2024-01-30T02:06:29;16.67;;;8.63;;
27505;SDS011;14939;43.596;1.320;2024-01-30T02:08:56;20.77;;;8.95;;
27505;SDS011;14939;43.596;1.320;2024-01-30T02:11:22;17.77;;;8.63;;
27505;SDS011;14939;43.596;1.320;2024-01-30T02:13:48;26.13;;;8.77;;
27505;SDS011;14939;43.596;1.320;2024-01-30T02:16:14;20.85;;;8.82;;
27505;SDS011;14939;43.596;1.320;2024-01-30T02:18:40;17.98;;;8.35;;
27505;SDS011;14939;43.596;1.320;2024-01-30T02:21:10;23.88;;;8.90;;
27505;SDS011;14939;43.596;1.320;2024-01-30T02:23:37;17.20;;;8.60;;
27505;SDS011;14939;43.596;1.320;2024-01-30T02:26:04;22.67;;;9.25;;
27505;SDS011;14939;43.596;1.320;2024-01-30T02:28:30;24.35;;;8.07;;
27505;SDS011;14939;43.596;1.320;2024-01-30T02:30:55;19.73;;;8.55;;
27505;SDS011;14939;43.596;1.320;2024-01-30T02:33:21;21.05;;;8.13;;
27505;SDS011;14939;43.596;1.320;2024-01-30T02:35:47;22.35;;;8.38;;
27505;SDS011;14939;43.596;1.320;2024-01-30T02:38:13;22.15;;;8.45;;
27505;SDS011;14939;43.596;1.320;2024-01-30T02:40:40;21.27;;;8.68;;
27505;SDS011;14939;43.596;1.320;2024-01-30T02:43:05;16.25;;;8.02;;
27505;SDS011;14939;43.596;1.320;2024-01-30T02:45:31;22.88;;;7.93;;
27505;SDS011;14939;43.596;1.320;2024-01-30T02:47:57;19.15;;;7.88;;
27505;SDS011;14939;43.596;1.320;2024-01-30T02:50:22;25.02;;;8.60;;
27505;SDS011;14939;43.596;1.320;2024-01-30T02:52:48;18.70;;;8.25;;
27505;SDS011;14939;43.596;1.320;2024-01-30T02:55:14;22.55;;;7.95;;
27505;SDS011;14939;43.596;1.320;2024-01-30T02:57:42;22.77;;;8.65;;
27505;SDS011;14939;43.596;1.320;2024-01-30T03:00:08;22.60;;;8.27;;
27505;SDS011;14939;43.596;1.320;2024-01-30T03:02:34;18.70;;;7.70;;
27505;SDS011;14939;43.596;1.320;2024-01-30T03:05:01;17.15;;;7.60;;
27505;SDS011;14939;43.596;1.320;2024-01-30T03:07:28;22.50;;;7.65;;
27505;SDS011;14939;43.596;1.320;2024-01-30T03:09:54;22.10;;;7.65;;
27505;SDS011;14939;43.596;1.320;2024-01-30T03:12:20;23.42;;;7.45;;
27505;SDS011;14939;43.596;1.320;2024-01-30T03:14:46;22.63;;;7.75;;
27505;SDS011;14939;43.596;1.320;2024-01-30T03:17:12;17.17;;;7.47;;
27505;SDS011;14939;43.596;1.320;2024-01-30T03:19:38;20.27;;;7.70;;
27505;SDS011;14939;43.596;1.320;2024-01-30T03:22:03;20.75;;;7.55;;
27505;SDS011;14939;43.596;1.320;2024-01-30T03:24:29;20.17;;;7.43;;
27505;SDS011;14939;43.596;1.320;2024-01-30T03:26:55;19.67;;;7.95;;
27505;SDS011;14939;43.596;1.320;2024-01-30T03:29:21;18.70;;;7.80;;
27505;SDS011;14939;43.596;1.320;2024-01-30T03:31:46;19.08;;;7.13;;
27505;SDS011;14939;43.596;1.320;2024-01-30T03:34:12;16.90;;;7.43;;
27505;SDS011;14939;43.596;1.320;2024-01-30T03:36:38;19.55;;;7.43;;
27505;SDS011;14939;43.596;1.320;2024-01-30T03:39:03;17.75;;;7.40;;
27505;SDS011;14939;43.596;1.320;2024-01-30T03:41:29;19.90;;;7.78;;
27505;SDS011;14939;43.596;1.320;2024-01-30T03:43:55;25.25;;;7.32;;
27505;SDS011;14939;43.596;1.320;2024-01-30T03:46:20;20.77;;;7.32;;
27505;SDS011;14939;43.596;1.320;2024-01-30T03:48:46;23.27;;;7.50;;
27505;SDS011;14939;43.596;1.320;2024-01-30T03:51:12;21.35;;;7.30;;
27505;SDS011;14939;43.596;1.320;2024-01-30T03:53:43;20.58;;;6.82;;
27505;SDS011;14939;43.596;1.320;2024-01-30T03:56:11;19.10;;;6.72;;
27505;SDS011;14939;43.596;1.320;2024-01-30T03:58:38;18.85;;;6.90;;
27505;SDS011;14939;43.596;1.320;2024-01-30T04:01:04;19.90;;;7.50;;
27505;SDS011;14939;43.596;1.320;2024-01-30T04:03:30;18.77;;;6.85;;
27505;SDS011;14939;43.596;1.320;2024-01-30T04:05:55;16.23;;;7.03;;
27505;SDS011;14939;43.596;1.320;2024-01-30T04:08:21;15.63;;;7.10;;
27505;SDS011;14939;43.596;1.320;2024-01-30T04:10:46;17.48;;;6.80;;
27505;SDS011;14939;43.596;1.320;2024-01-30T04:13:12;22.20;;;7.25;;
27505;SDS011;14939;43.596;1.320;2024-01-30T04:15:38;29.27;;;7.53;;
27505;SDS011;14939;43.596;1.320;2024-01-30T04:18:04;18.73;;;6.93;;
27505;SDS011;14939;43.596;1.320;2024-01-30T04:20:30;15.63;;;6.65;;
27505;SDS011;14939;43.596;1.320;2024-01-30T04:22:56;15.38;;;7.22;;
27505;SDS011;14939;43.596;1.320;2024-01-30T04:25:21;19.65;;;6.82;;
27505;SDS011;14939;43.596;1.320;2024-01-30T04:27:47;22.45;;;6.85;;
27505;SDS011;14939;43.596;1.320;2024-01-30T04:30:13;20.95;;;6.72;;
27505;SDS011;14939;43.596;1.320;2024-01-30T04:32:39;23.00;;;7.15;;
27505;SDS011;14939;43.596;1.320;2024-01-30T04:35:04;18.42;;;7.07;;
27505;SDS011;14939;43.596;1.320;2024-01-30T04:37:31;20.20;;;6.85;;
27505;SDS011;14939;43.596;1.320;2024-01-30T04:39:56;27.95;;;7.18;;
27505;SDS011;14939;43.596;1.320;2024-01-30T04:42:22;21.88;;;7.03;;
27505;SDS011;14939;43.596;1.320;2024-01-30T04:44:48;21.88;;;7.38;;
27505;SDS011;14939;43.596;1.320;2024-01-30T04:47:13;15.07;;;6.60;;
27505;SDS011;14939;43.596;1.320;2024-01-30T04:49:39;16.98;;;7.22;;
27505;SDS011;14939;43.596;1.320;2024-01-30T04:52:05;17.65;;;7.32;;
27505;SDS011;14939;43.596;1.320;2024-01-30T04:54:31;15.07;;;6.82;;
27505;SDS011;14939;43.596;1.320;2024-01-30T04:56:57;21.77;;;7.20;;
27505;SDS011;14939;43.596;1.320;2024-01-30T04:59:23;15.63;;;6.90;;
27505;SDS011;14939;43.596;1.320;2024-01-30T05:01:49;23.83;;;7.40;;
27505;SDS011;14939;43.596;1.320;2024-01-30T05:04:15;16.73;;;7.18;;
27505;SDS011;14939;43.596;1.320;2024-01-30T05:06:40;22.20;;;7.10;;
27505;SDS011;14939;43.596;1.320;2024-01-30T05:09:06;21.70;;;6.88;;
27505;SDS011;14939;43.596;1.320;2024-01-30T05:11:36;21.75;;;6.88;;
27505;SDS011;14939;43.596;1.320;2024-01-30T05:14:05;23.75;;;6.80;;
27505;SDS011;14939;43.596;1.320;2024-01-30T05:16:32;21.08;;;6.65;;
27505;SDS011;14939;43.596;1.320;2024-01-30T05:18:58;19.20;;;7.07;;
27505;SDS011;14939;43.596;1.320;2024-01-30T05:21:24;17.83;;;6.90;;
27505;SDS011;14939;43.596;1.320;2024-01-30T05:23:50;19.20;;;7.05;;
27505;SDS011;14939;43.596;1.320;2024-01-30T05:26:15;18.20;;;6.90;;
27505;SDS011;14939;43.596;1.320;2024-01-30T05:28:41;19.15;;;6.82;;
27505;SDS011;14939;43.596;1.320;2024-01-30T05:31:09;19.63;;;7.18;;
27505;SDS011;14939;43.596;1.320;2024-01-30T05:33:35;25.77;;;7.05;;
27505;SDS011;14939;43.596;1.320;2024-01-30T05:36:01;16.45;;;6.93;;
27505;SDS011;14939;43.596;1.320;2024-01-30T05:38:26;20.83;;;7.15;;
27505;SDS011;14939;43.596;1.320;2024-01-30T05:40:52;19.33;;;6.55;;
27505;SDS011;14939;43.596;1.320;2024-01-30T05:43:18;17.80;;;6.82;;
27505;SDS011;14939;43.596;1.320;2024-01-30T05:45:43;19.42;;;7.03;;
27505;SDS011;14939;43.596;1.320;2024-01-30T05:48:09;25.27;;;7.45;;
27505;SDS011;14939;43.596;1.320;2024-01-30T05:50:35;22.05;;;7.30;;
27505;SDS011;14939;43.596;1.320;2024-01-30T05:53:00;22.27;;;6.70;;
27505;SDS011;14939;43.596;1.320;2024-01-30T05:55:26;21.90;;;7.60;;
27505;SDS011;14939;43.596;1.320;2024-01-30T05:57:52;25.65;;;7.35;;
27505;SDS011;14939;43.596;1.320;2024-01-30T06:00:18;23.10;;;6.85;;
27505;SDS011;14939;43.596;1.320;2024-01-30T06:02:43;23.52;;;6.72;;
27505;SDS011;14939;43.596;1.320;2024-01-30T06:05:09;25.40;;;6.90;;
27505;SDS011;14939;43.596;1.320;2024-01-30T06:07:35;26.15;;;7.53;;
27505;SDS011;14939;43.596;1.320;2024-01-30T06:10:00;21.90;;;7.13;;
27505;SDS011;14939;43.596;1.320;2024-01-30T06:12:27;17.60;;;6.60;;
27505;SDS011;14939;43.596;1.320;2024-01-30T06:14:53;18.70;;;7.28;;
27505;SDS011;14939;43.596;1.320;2024-01-30T06:17:21;17.30;;;7.55;;
27505;SDS011;14939;43.596;1.320;2024-01-30T06:19:47;22.08;;;7.55;;
27505;SDS011;14939;43.596;1.320;2024-01-30T06:22:13;18.17;;;6.60;;
27505;SDS011;14939;43.596;1.320;2024-01-30T06:24:39;24.17;;;7.18;;
27505;SDS011;14939;43.596;1.320;2024-01-30T06:27:04;21.58;;;7.00;;
27505;SDS011;14939;43.596;1.320;2024-01-30T06:29:30;23.42;;;7.30;;
27505;SDS011;14939;43.596;1.320;2024-01-30T06:31:56;26.00;;;7.25;;
27505;SDS011;14939;43.596;1.320;2024-01-30T06:34:22;24.13;;;7.40;;
27505;SDS011;14939;43.596;1.320;2024-01-30T06:36:47;20.10;;;6.72;;
27505;SDS011;14939;43.596;1.320;2024-01-30T06:39:13;22.52;;;6.88;;
27505;SDS011;14939;43.596;1.320;2024-01-30T06:41:39;22.17;;;6.82;;
27505;SDS011;14939;43.596;1.320;2024-01-30T06:44:04;25.35;;;7.50;;
27505;SDS011;14939;43.596;1.320;2024-01-30T06:46:31;26.65;;;8.00;;
27505;SDS011;14939;43.596;1.320;2024-01-30T06:48:57;24.38;;;7.60;;
27505;SDS011;14939;43.596;1.320;2024-01-30T06:51:23;24.60;;;7.25;;
27505;SDS011;14939;43.596;1.320;2024-01-30T06:53:49;21.33;;;7.53;;
27505;SDS011;14939;43.596;1.320;2024-01-30T06:56:14;23.55;;;7.43;;
27505;SDS011;14939;43.596;1.320;2024-01-30T06:58:41;23.85;;;8.00;;
27505;SDS011;14939;43.596;1.320;2024-01-30T07:01:07;23.35;;;7.43;;
27505;SDS011;14939;43.596;1.320;2024-01-30T07:03:33;26.67;;;7.82;;
27505;SDS011;14939;43.596;1.320;2024-01-30T07:05:58;23.52;;;7.50;;
27505;SDS011;14939;43.596;1.320;2024-01-30T07:08:24;23.63;;;7.43;;
27505;SDS011;14939;43.596;1.320;2024-01-30T07:10:49;24.10;;;7.65;;
27505;SDS011;14939;43.596;1.320;2024-01-30T07:13:15;21.77;;;7.05;;
27505;SDS011;14939;43.596;1.320;2024-01-30T07:15:41;20.45;;;7.43;;
27505;SDS011;14939;43.596;1.320;2024-01-30T07:18:07;22.52;;;6.97;;
27505;SDS011;14939;43.596;1.320;2024-01-30T07:20:34;23.73;;;7.60;;
27505;SDS011;14939;43.596;1.320;2024-01-30T07:23:00;22.95;;;7.20;;
27505;SDS011;14939;43.596;1.320;2024-01-30T07:25:26;24.13;;;7.75;;
27505;SDS011;14939;43.596;1.320;2024-01-30T07:27:52;28.83;;;7.70;;
27505;SDS011;14939;43.596;1.320;2024-01-30T07:30:19;25.38;;;7.88;;
27505;SDS011;14939;43.596;1.320;2024-01-30T07:32:45;30.40;;;8.88;;
27505;SDS011;14939;43.596;1.320;2024-01-30T07:35:11;21.13;;;7.53;;
27505;SDS011;14939;43.596;1.320;2024-01-30T07:37:37;21.33;;;7.80;;
27505;SDS011;14939;43.596;1.320;2024-01-30T07:40:03;29.58;;;7.78;;
27505;SDS011;14939;43.596;1.320;2024-01-30T07:42:29;23.10;;;7.68;;
27505;SDS011;14939;43.596;1.320;2024-01-30T07:44:54;20.52;;;7.50;;
27505;SDS011;14939;43.596;1.320;2024-01-30T07:47:20;19.35;;;7.60;;
27505;SDS011;14939;43.596;1.320;2024-01-30T07:49:46;23.45;;;7.75;;
27505;SDS011;14939;43.596;1.320;2024-01-30T07:52:12;21.83;;;6.72;;
27505;SDS011;14939;43.596;1.320;2024-01-30T07:54:38;20.08;;;7.10;;
27505;SDS011;14939;43.596;1.320;2024-01-30T07:57:04;21.00;;;7.10;;
27505;SDS011;14939;43.596;1.320;2024-01-30T07:59:29;24.10;;;7.47;;
27505;SDS011;14939;43.596;1.320;2024-01-30T08:01:55;21.42;;;6.75;;
27505;SDS011;14939;43.596;1.320;2024-01-30T08:04:21;23.13;;;7.90;;
27505;SDS011;14939;43.596;1.320;2024-01-30T08:06:46;18.02;;;6.80;;
27505;SDS011;14939;43.596;1.320;2024-01-30T08:09:12;23.73;;;7.30;;
27505;SDS011;14939;43.596;1.320;2024-01-30T08:11:37;24.13;;;7.07;;
27505;SDS011;14939;43.596;1.320;2024-01-30T08:14:03;24.00;;;7.35;;
27505;SDS011;14939;43.596;1.320;2024-01-30T08:16:29;18.10;;;6.43;;
27505;SDS011;14939;43.596;1.320;2024-01-30T08:18:54;22.33;;;7.00;;
27505;SDS011;14939;43.596;1.320;2024-01-30T08:21:22;18.98;;;6.55;;
27505;SDS011;14939;43.596;1.320;2024-01-30T08:23:48;15.80;;;6.20;;
27505;SDS011;14939;43.596;1.320;2024-01-30T08:26:13;20.77;;;6.35;;
27505;SDS011;14939;43.596;1.320;2024-01-30T08:28:39;17.05;;;6.00;;
27505;SDS011;14939;43.596;1.320;2024-01-30T08:31:05;18.25;;;5.97;;
27505;SDS011;14939;43.596;1.320;2024-01-30T08:33:30;24.35;;;6.13;;
27505;SDS011;14939;43.596;1.320;2024-01-30T08:35:56;23.38;;;6.10;;
27505;SDS011;14939;43.596;1.320;2024-01-30T08:38:22;17.80;;;5.90;;
27505;SDS011;14939;43.596;1.320;2024-01-30T08:40:48;18.52;;;5.38;;
27505;SDS011;14939;43.596;1.320;2024-01-30T08:43:14;20.83;;;5.68;;
27505;SDS011;14939;43.596;1.320;2024-01-30T08:45:40;16.30;;;5.50;;
27505;SDS011;14939;43.596;1.320;2024-01-30T08:48:06;20.05;;;5.43;;
27505;SDS011;14939;43.596;1.320;2024-01-30T08:50:33;15.52;;;5.18;;
27505;SDS011;14939;43.596;1.320;2024-01-30T08:52:58;19.20;;;5.45;;
27505;SDS011;14939;43.596;1.320;2024-01-30T08:55:24;17.92;;;5.35;;
27505;SDS011;14939;43.596;1.320;2024-01-30T08:57:49;16.98;;;5.32;;
27505;SDS011;14939;43.596;1.320;2024-01-30T09:00:17;15.48;;;5.05;;
27505;SDS011;14939;43.596;1.320;2024-01-30T09:02:42;14.75;;;5.10;;
27505;SDS011;14939;43.596;1.320;2024-01-30T09:05:08;20.27;;;5.32;;
27505;SDS011;14939;43.596;1.320;2024-01-30T09:07:34;19.92;;;4.85;;
27505;SDS011;14939;43.596;1.320;2024-01-30T09:10:00;12.73;;;5.00;;
27505;SDS011;14939;43.596;1.320;2024-01-30T09:12:25;16.33;;;5.55;;
27505;SDS011;14939;43.596;1.320;2024-01-30T09:14:51;10.95;;;5.30;;
27505;SDS011;14939;43.596;1.320;2024-01-30T09:17:16;14.35;;;5.30;;
27505;SDS011;14939;43.596;1.320;2024-01-30T09:19:42;16.63;;;4.82;;
27505;SDS011;14939;43.596;1.320;2024-01-30T09:22:08;14.77;;;5.10;;
27505;SDS011;14939;43.596;1.320;2024-01-30T09:24:33;17.52;;;5.18;;
27505;SDS011;14939;43.596;1.320;2024-01-30T09:26:59;19.23;;;5.13;;
27505;SDS011;14939;43.596;1.320;2024-01-30T09:29:25;20.38;;;5.63;;
27505;SDS011;14939;43.596;1.320;2024-01-30T09:31:51;24.38;;;5.30;;
27505;SDS011;14939;43.596;1.320;2024-01-30T09:34:17;19.42;;;5.45;;
27505;SDS011;14939;43.596;1.320;2024-01-30T09:36:42;16.42;;;5.20;;
27505;SDS011;14939;43.596;1.320;2024-01-30T09:39:08;19.83;;;5.07;;
27505;SDS011;14939;43.596;1.320;2024-01-30T09:41:34;16.88;;;5.18;;
27505;SDS011;14939;43.596;1.320;2024-01-30T09:44:06;19.25;;;5.15;;
27505;SDS011;14939;43.596;1.320;2024-01-30T09:46:33;14.13;;;5.00;;
27505;SDS011;14939;43.596;1.320;2024-01-30T09:49:00;13.32;;;5.18;;
27505;SDS011;14939;43.596;1.320;2024-01-30T09:51:27;14.57;;;4.60;;
27505;SDS011;14939;43.596;1.320;2024-01-30T09:53:55;16.45;;;4.88;;
27505;SDS011;14939;43.596;1.320;2024-01-30T09:56:21;18.17;;;4.72;;
27505;SDS011;14939;43.596;1.320;2024-01-30T09:58:47;15.23;;;4.90;;
27505;SDS011;14939;43.596;1.320;2024-01-30T10:01:13;13.52;;;4.57;;
27505;SDS011;14939;43.596;1.320;2024-01-30T10:03:43;15.65;;;5.47;;
27505;SDS011;14939;43.596;1.320;2024-01-30T10:06:09;22.58;;;5.55;;
27505;SDS011;14939;43.596;1.320;2024-01-30T10:08:35;16.55;;;4.93;;
27505;SDS011;14939;43.596;1.320;2024-01-30T10:11:01;14.93;;;4.65;;
27505;SDS011;14939;43.596;1.320;2024-01-30T10:13:28;12.60;;;4.53;;
27505;SDS011;14939;43.596;1.320;2024-01-30T10:15:54;18.00;;;4.70;;
27505;SDS011;14939;43.596;1.320;2024-01-30T10:18:20;18.40;;;4.60;;
27505;SDS011;14939;43.596;1.320;2024-01-30T10:20:47;13.43;;;4.55;;
27505;SDS011;14939;43.596;1.320;2024-01-30T10:23:13;16.05;;;4.85;;
27505;SDS011;14939;43.596;1.320;2024-01-30T10:25:38;15.45;;;4.65;;
27505;SDS011;14939;43.596;1.320;2024-01-30T10:28:04;14.07;;;4.55;;
27505;SDS011;14939;43.596;1.320;2024-01-30T10:30:30;13.85;;;4.60;;
27505;SDS011;14939;43.596;1.320;2024-01-30T10:32:56;12.82;;;4.43;;
27505;SDS011;14939;43.596;1.320;2024-01-30T10:35:21;18.20;;;5.40;;
27505;SDS011;14939;43.596;1.320;2024-01-30T10:37:47;14.60;;;4.32;;
27505;SDS011;14939;43.596;1.320;2024-01-30T10:40:14;16.27;;;4.97;;
27505;SDS011;14939;43.596;1.320;2024-01-30T10:42:44;14.00;;;5.00;;
27505;SDS011;14939;43.596;1.320;2024-01-30T10:45:13;16.75;;;6.97;;
27505;SDS011;14939;43.596;1.320;2024-01-30T10:47:49;17.40;;;4.63;;
27505;SDS011;14939;43.596;1.320;2024-01-30T10:50:15;16.48;;;4.63;;
27505;SDS011;14939;43.596;1.320;2024-01-30T10:52:41;15.48;;;5.28;;
27505;SDS011;14939;43.596;1.320;2024-01-30T10:55:08;15.18;;;4.45;;
27505;SDS011;14939;43.596;1.320;2024-01-30T10:57:35;14.30;;;4.75;;
27505;SDS011;14939;43.596;1.320;2024-01-30T11:00:03;13.93;;;4.90;;
27505;SDS011;14939;43.596;1.320;2024-01-30T11:02:39;12.55;;;4.88;;
27505;SDS011;14939;43.596;1.320;2024-01-30T11:05:06;14.80;;;4.97;;
27505;SDS011;14939;43.596;1.320;2024-01-30T11:07:33;18.52;;;4.53;;
27505;SDS011;14939;43.596;1.320;2024-01-30T11:12:29;15.60;;;4.68;;
27505;SDS011;14939;43.596;1.320;2024-01-30T11:15:07;19.33;;;5.03;;
27505;SDS011;14939;43.596;1.320;2024-01-30T11:20:16;15.23;;;4.37;;
27505;SDS011;14939;43.596;1.320;2024-01-30T11:22:45;17.95;;;5.00;;
27505;SDS011;14939;43.596;1.320;2024-01-30T11:25:12;11.30;;;4.07;;
27505;SDS011;14939;43.596;1.320;2024-01-30T11:27:38;13.63;;;4.03;;
27505;SDS011;14939;43.596;1.320;2024-01-30T11:30:05;18.40;;;4.07;;
27505;SDS011;14939;43.596;1.320;2024-01-30T11:32:32;12.75;;;4.18;;
27505;SDS011;14939;43.596;1.320;2024-01-30T11:34:58;13.32;;;4.63;;
27505;SDS011;14939;43.596;1.320;2024-01-30T11:37:25;10.45;;;4.18;;
27505;SDS011;14939;43.596;1.320;2024-01-30T11:39:53;11.45;;;4.43;;
27505;SDS011;14939;43.596;1.320;2024-01-30T11:42:19;11.98;;;4.45;;
27505;SDS011;14939;43.596;1.320;2024-01-30T11:44:47;12.48;;;4.40;;
27505;SDS011;14939;43.596;1.320;2024-01-30T11:47:13;18.17;;;4.50;;
27505;SDS011;14939;43.596;1.320;2024-01-30T11:49:39;17.25;;;3.90;;
27505;SDS011;14939;43.596;1.320;2024-01-30T11:52:05;16.20;;;4.47;;
27505;SDS011;14939;43.596;1.320;2024-01-30T11:54:30;12.20;;;4.35;;
27505;SDS011;14939;43.596;1.320;2024-01-30T11:56:56;12.35;;;4.35;;
27505;SDS011;14939;43.596;1.320;2024-01-30T11:59:22;10.05;;;4.00;;
27505;SDS011;14939;43.596;1.320;2024-01-30T12:01:48;16.42;;;4.90;;
27505;SDS011;14939;43.596;1.320;2024-01-30T12:04:14;12.85;;;4.28;;
27505;SDS011;14939;43.596;1.320;2024-01-30T12:06:40;16.52;;;4.72;;
27505;SDS011;14939;43.596;1.320;2024-01-30T12:09:06;13.73;;;4.32;;
27505;SDS011;14939;43.596;1.320;2024-01-30T12:11:43;13.85;;;4.53;;
27505;SDS011;14939;43.596;1.320;2024-01-30T12:14:13;16.67;;;4.65;;
27505;SDS011;14939;43.596;1.320;2024-01-30T12:16:40;15.43;;;4.80;;
27505;SDS011;14939;43.596;1.320;2024-01-30T12:19:06;18.58;;;5.18;;
27505;SDS011;14939;43.596;1.320;2024-01-30T12:21:33;16.73;;;4.93;;
27505;SDS011;14939;43.596;1.320;2024-01-30T12:23:59;14.35;;;4.35;;
27505;SDS011;14939;43.596;1.320;2024-01-30T12:26:25;16.55;;;4.55;;
27505;SDS011;14939;43.596;1.320;2024-01-30T12:28:54;12.52;;;4.15;;
27505;SDS011;14939;43.596;1.320;2024-01-30T12:31:27;12.38;;;3.80;;
27505;SDS011;14939;43.596;1.320;2024-01-30T12:33:53;11.43;;;4.00;;
27505;SDS011;14939;43.596;1.320;2024-01-30T12:36:19;11.27;;;3.70;;
27505;SDS011;14939;43.596;1.320;2024-01-30T12:38:47;11.63;;;3.65;;
27505;SDS011;14939;43.596;1.320;2024-01-30T12:41:13;15.05;;;4.22;;
27505;SDS011;14939;43.596;1.320;2024-01-30T12:43:39;11.57;;;3.92;;
27505;SDS011;14939;43.596;1.320;2024-01-30T12:46:05;11.63;;;3.50;;
27505;SDS011;14939;43.596;1.320;2024-01-30T12:48:31;11.48;;;3.63;;
27505;SDS011;14939;43.596;1.320;2024-01-30T12:50:56;10.10;;;3.72;;
27505;SDS011;14939;43.596;1.320;2024-01-30T12:53:22;11.57;;;3.75;;
27505;SDS011;14939;43.596;1.320;2024-01-30T12:55:48;11.85;;;3.90;;
27505;SDS011;14939;43.596;1.320;2024-01-30T12:58:15;11.43;;;4.10;;
27505;SDS011;14939;43.596;1.320;2024-01-30T13:00:41;13.88;;;3.70;;
27505;SDS011;14939;43.596;1.320;2024-01-30T13:03:08;13.65;;;3.95;;
27505;SDS011;14939;43.596;1.320;2024-01-30T13:05:35;10.68;;;3.95;;
27505;SDS011;14939;43.596;1.320;2024-01-30T13:08:00;13.48;;;4.20;;
27505;SDS011;14939;43.596;1.320;2024-01-30T13:10:26;9.68;;;3.80;;
27505;SDS011;14939;43.596;1.320;2024-01-30T13:12:52;15.10;;;3.60;;
27505;SDS011;14939;43.596;1.320;2024-01-30T13:15:18;14.98;;;4.10;;
27505;SDS011;14939;43.596;1.320;2024-01-30T13:17:44;15.73;;;4.35;;
27505;SDS011;14939;43.596;1.320;2024-01-30T13:20:12;12.20;;;4.07;;
27505;SDS011;14939;43.596;1.320;2024-01-30T13:22:41;12.95;;;3.75;;
27505;SDS011;14939;43.596;1.320;2024-01-30T13:25:08;21.88;;;4.68;;
27505;SDS011;14939;43.596;1.320;2024-01-30T13:27:34;12.90;;;4.13;;
27505;SDS011;14939;43.596;1.320;2024-01-30T13:29:59;11.98;;;3.97;;
27505;SDS011;14939;43.596;1.320;2024-01-30T13:32:25;11.38;;;3.88;;
27505;SDS011;14939;43.596;1.320;2024-01-30T13:34:51;9.73;;;3.35;;
27505;SDS011;14939;43.596;1.320;2024-01-30T13:37:16;14.18;;;3.63;;
27505;SDS011;14939;43.596;1.320;2024-01-30T13:39:42;14.25;;;3.85;;
27505;SDS011;14939;43.596;1.320;2024-01-30T13:42:08;12.23;;;3.70;;
27505;SDS011;14939;43.596;1.320;2024-01-30T13:44:35;12.10;;;3.72;;
27505;SDS011;14939;43.596;1.320;2024-01-30T13:47:00;12.30;;;3.40;;
27505;SDS011;14939;43.596;1.320;2024-01-30T13:49:27;9.63;;;3.95;;
27505;SDS011;14939;43.596;1.320;2024-01-30T13:51:52;17.73;;;3.97;;
27505;SDS011;14939;43.596;1.320;2024-01-30T13:54:18;14.23;;;3.97;;
27505;SDS011;14939;43.596;1.320;2024-01-30T13:56:44;10.10;;;3.90;;
27505;SDS011;14939;43.596;1.320;2024-01-30T13:59:10;10.45;;;3.60;;
27505;SDS011;14939;43.596;1.320;2024-01-30T14:01:35;13.10;;;4.00;;
27505;SDS011;14939;43.596;1.320;2024-01-30T14:04:01;12.82;;;3.70;;
27505;SDS011;14939;43.596;1.320;2024-01-30T14:06:27;13.48;;;4.13;;
27505;SDS011;14939;43.596;1.320;2024-01-30T14:08:53;12.40;;;3.85;;
27505;SDS011;14939;43.596;1.320;2024-01-30T14:11:18;11.77;;;3.78;;
27505;SDS011;14939;43.596;1.320;2024-01-30T14:13:44;14.02;;;4.28;;
27505;SDS011;14939;43.596;1.320;2024-01-30T14:16:10;13.65;;;4.03;;
27505;SDS011;14939;43.596;1.320;2024-01-30T14:18:37;10.57;;;3.78;;
27505;SDS011;14939;43.596;1.320;2024-01-30T14:21:02;10.23;;;3.85;;
27505;SDS011;14939;43.596;1.320;2024-01-30T14:23:28;10.68;;;3.75;;
27505;SDS011;14939;43.596;1.320;2024-01-30T14:25:53;10.30;;;3.20;;
27505;SDS011;14939;43.596;1.320;2024-01-30T14:28:19;9.60;;;3.58;;
27505;SDS011;14939;43.596;1.320;2024-01-30T14:30:45;11.68;;;3.67;;
27505;SDS011;14939;43.596;1.320;2024-01-30T14:33:10;8.70;;;3.70;;